createdAt,value
2018-11-04T00:01:47.029Z,100.00
2018-11-04T00:04:16.123Z,100.00
2018-11-04T00:06:45.253Z,100.00
2018-11-04T00:09:15.706Z,100.00
2018-11-04T00:11:45.298Z,99.94
2018-11-04T00:14:14.433Z,99.46
2018-11-04T00:16:43.596Z,99.19
2018-11-04T00:19:12.606Z,98.59
2018-11-04T00:21:41.646Z,98.70
2018-11-04T00:24:10.783Z,99.41
2018-11-04T00:26:39.842Z,99.43
2018-11-04T00:29:09.427Z,100.00
2018-11-04T00:31:38.621Z,100.00
2018-11-04T00:34:07.692Z,100.00
2018-11-04T00:36:36.856Z,100.00
2018-11-04T00:39:08.521Z,100.00
2018-11-04T00:41:37.659Z,100.00
2018-11-04T00:44:06.968Z,100.00
2018-11-04T00:46:36.046Z,100.00
2018-11-04T00:49:05.749Z,100.00
2018-11-04T00:51:34.767Z,100.00
2018-11-04T00:54:03.819Z,100.00
2018-11-04T00:56:32.851Z,100.00
2018-11-04T00:59:01.941Z,100.00
2018-11-04T01:01:31.061Z,100.00
2018-11-04T01:04:00.994Z,100.00
2018-11-04T01:06:30.059Z,100.00
2018-11-04T01:08:59.199Z,100.00
2018-11-04T01:11:28.229Z,100.00
2018-11-04T01:13:57.291Z,100.00
2018-11-04T01:16:26.334Z,100.00
2018-11-04T01:18:55.636Z,100.00
2018-11-04T01:21:24.714Z,100.00
2018-11-04T01:23:53.772Z,100.00
2018-11-04T01:26:22.832Z,100.00
2018-11-04T01:28:51.884Z,100.00
2018-11-04T01:31:21.000Z,100.00
2018-11-04T01:33:50.213Z,100.00
2018-11-04T01:36:19.309Z,100.00
2018-11-04T01:38:48.399Z,100.00
2018-11-04T01:41:17.490Z,100.00
2018-11-04T01:43:46.623Z,100.00
2018-11-04T01:46:15.716Z,100.00
2018-11-04T01:48:44.826Z,100.00
2018-11-04T01:51:13.869Z,100.00
2018-11-04T01:53:42.935Z,100.00
2018-11-04T01:56:12.039Z,100.00
2018-11-04T01:58:41.072Z,100.00
2018-11-04T02:01:10.266Z,100.00
2018-11-04T02:03:39.306Z,100.00
2018-11-04T02:06:08.439Z,100.00
2018-11-04T02:08:37.522Z,100.00
2018-11-04T02:11:06.739Z,100.00
2018-11-04T02:13:35.813Z,100.00
2018-11-04T02:16:04.946Z,100.00
2018-11-04T02:18:34.056Z,100.00
2018-11-04T02:21:03.148Z,100.00
2018-11-04T02:23:32.206Z,100.00
2018-11-04T02:26:01.216Z,100.00
2018-11-04T02:28:30.310Z,100.00
2018-11-04T02:30:59.404Z,100.00
2018-11-04T02:33:28.457Z,100.00
2018-11-04T02:35:57.510Z,100.00
2018-11-04T02:38:26.608Z,100.00
2018-11-04T02:40:55.668Z,100.00
2018-11-04T02:43:24.796Z,100.00
2018-11-04T02:45:53.874Z,100.00
2018-11-04T02:48:22.938Z,100.00
2018-11-04T02:50:52.050Z,100.00
2018-11-04T02:53:21.127Z,100.00
2018-11-04T02:55:50.276Z,100.00
2018-11-04T02:58:19.398Z,100.00
2018-11-04T03:00:48.497Z,100.00
2018-11-04T03:03:17.654Z,100.00
2018-11-04T03:05:46.774Z,100.00
2018-11-04T03:08:15.824Z,100.00
2018-11-04T03:10:44.958Z,100.00
2018-11-04T03:13:14.124Z,100.00
2018-11-04T03:15:43.187Z,100.00
2018-11-04T03:18:12.260Z,100.00
2018-11-04T03:20:41.302Z,100.00
2018-11-04T03:23:10.466Z,100.00
2018-11-04T03:25:39.591Z,100.00
2018-11-04T03:28:09.624Z,100.00
2018-11-04T03:30:39.014Z,100.00
2018-11-04T03:33:08.895Z,100.00
2018-11-04T03:35:37.944Z,100.00
2018-11-04T03:38:07.641Z,100.00
2018-11-04T03:40:36.820Z,100.00
2018-11-04T03:43:05.981Z,100.00
2018-11-04T03:45:35.014Z,100.00
2018-11-04T03:48:04.196Z,100.00
2018-11-04T03:50:33.345Z,100.00
2018-11-04T03:53:04.462Z,100.00
2018-11-04T03:55:34.260Z,100.00
2018-11-04T03:58:03.718Z,100.00
2018-11-04T04:00:32.859Z,100.00
2018-11-04T04:03:01.995Z,100.00
2018-11-04T04:05:31.049Z,100.00
2018-11-04T04:08:00.078Z,100.00
2018-11-04T04:10:29.201Z,100.00
2018-11-04T04:12:58.265Z,100.00
2018-11-04T04:15:27.277Z,100.00
2018-11-04T04:17:56.390Z,100.00
2018-11-04T04:20:25.609Z,100.00
2018-11-04T04:22:54.782Z,100.00
2018-11-04T04:25:23.855Z,100.00
2018-11-04T04:27:52.978Z,100.00
2018-11-04T04:30:22.098Z,100.00
2018-11-04T04:32:51.150Z,100.00
2018-11-04T04:35:20.344Z,100.00
2018-11-04T04:37:49.392Z,100.00
2018-11-04T04:40:18.430Z,100.00
2018-11-04T04:42:47.579Z,100.00
2018-11-04T04:45:16.706Z,100.00
2018-11-04T04:47:45.787Z,100.00
2018-11-04T04:50:14.967Z,100.00
2018-11-04T04:52:44.052Z,100.00
2018-11-04T04:55:13.238Z,100.00
2018-11-04T04:57:42.334Z,100.00
2018-11-04T05:00:11.464Z,100.00
2018-11-04T05:02:40.546Z,100.00
2018-11-04T05:05:09.735Z,100.00
2018-11-04T05:07:38.742Z,100.00
2018-11-04T05:10:07.762Z,100.00
2018-11-04T05:12:36.853Z,100.00
2018-11-04T05:15:07.695Z,100.00
2018-11-04T05:17:36.890Z,100.00
2018-11-04T05:20:06.269Z,100.00
2018-11-04T05:22:35.344Z,100.00
2018-11-04T05:25:05.025Z,100.00
2018-11-04T05:27:34.156Z,100.00
2018-11-04T05:30:03.303Z,100.00
2018-11-04T05:32:32.426Z,100.00
2018-11-04T05:35:01.526Z,100.00
2018-11-04T05:37:30.580Z,100.00
2018-11-04T05:39:59.697Z,100.00
2018-11-04T05:42:28.857Z,100.00
2018-11-04T05:44:58.001Z,100.00
2018-11-04T05:47:27.087Z,100.00
2018-11-04T05:49:56.116Z,100.00
2018-11-04T05:52:25.217Z,100.00
2018-11-04T05:54:54.293Z,100.00
2018-11-04T05:57:23.456Z,100.00
2018-11-04T05:59:52.604Z,100.00
2018-11-04T06:02:22.435Z,100.00
2018-11-04T06:04:51.469Z,100.00
2018-11-04T06:07:20.623Z,100.00
2018-11-04T06:09:49.721Z,100.00
2018-11-04T06:12:18.822Z,100.00
2018-11-04T06:14:47.954Z,100.00
2018-11-04T06:17:16.988Z,100.00
2018-11-04T06:19:46.126Z,100.00
2018-11-04T06:22:15.162Z,100.00
2018-11-04T06:24:44.230Z,100.00
2018-11-04T06:27:13.274Z,100.00
2018-11-04T06:29:42.353Z,100.00
2018-11-04T06:32:11.467Z,100.00
2018-11-04T06:34:40.666Z,100.00
2018-11-04T06:37:16.448Z,100.00
2018-11-04T06:39:45.488Z,100.00
2018-11-04T06:42:14.663Z,100.00
2018-11-04T06:44:43.733Z,100.00
2018-11-04T06:47:12.954Z,100.00
2018-11-04T06:49:42.068Z,100.00
2018-11-04T06:52:11.190Z,100.00
2018-11-04T06:54:40.315Z,100.00
2018-11-04T06:57:09.468Z,100.00
2018-11-04T06:59:38.521Z,100.00
2018-11-04T07:02:07.694Z,100.00
2018-11-04T07:04:36.828Z,100.00
2018-11-04T07:07:06.056Z,100.00
2018-11-04T07:09:35.238Z,100.00
2018-11-04T07:12:04.462Z,100.00
2018-11-04T07:14:33.710Z,100.00
2018-11-04T07:17:02.906Z,100.00
2018-11-04T07:19:32.038Z,100.00
2018-11-04T07:22:01.145Z,100.00
2018-11-04T07:24:30.242Z,100.00
2018-11-04T07:26:59.350Z,100.00
2018-11-04T07:29:28.611Z,100.00
2018-11-04T07:31:57.661Z,100.00
2018-11-04T07:34:26.877Z,100.00
2018-11-04T07:36:56.120Z,100.00
2018-11-04T07:39:25.631Z,100.00
2018-11-04T07:41:54.912Z,100.00
2018-11-04T07:44:24.203Z,100.00
2018-11-04T07:46:53.316Z,100.00
2018-11-04T07:49:22.466Z,100.00
2018-11-04T07:51:51.557Z,100.00
2018-11-04T07:54:20.598Z,100.00
2018-11-04T07:56:49.691Z,100.00
2018-11-04T07:59:18.782Z,100.00
2018-11-04T08:01:47.905Z,100.00
2018-11-04T08:04:17.107Z,100.00
2018-11-04T08:06:46.220Z,100.00
2018-11-04T08:09:15.303Z,100.00
2018-11-04T08:11:44.386Z,100.00
2018-11-04T08:14:13.479Z,100.00
2018-11-04T08:16:42.588Z,100.00
2018-11-04T08:19:11.762Z,100.00
2018-11-04T08:21:40.935Z,100.00
2018-11-04T08:24:10.067Z,100.00
2018-11-04T08:26:39.162Z,100.00
2018-11-04T08:29:08.276Z,100.00
2018-11-04T08:31:37.409Z,100.00
2018-11-04T08:34:06.620Z,100.00
2018-11-04T08:36:36.009Z,100.00
2018-11-04T08:39:06.897Z,100.00
2018-11-04T08:41:36.318Z,100.00
2018-11-04T08:44:05.686Z,100.00
2018-11-04T08:46:35.083Z,100.00
2018-11-04T08:49:04.674Z,100.00
2018-11-04T08:51:34.064Z,100.00
2018-11-04T08:54:03.074Z,100.00
2018-11-04T08:56:32.095Z,100.00
2018-11-04T08:59:01.092Z,100.00
2018-11-04T09:01:30.121Z,100.00
2018-11-04T09:03:59.222Z,100.00
2018-11-04T09:06:28.336Z,100.00
2018-11-04T09:08:57.456Z,100.00
2018-11-04T09:11:26.555Z,100.00
2018-11-04T09:13:56.068Z,100.00
2018-11-04T09:16:25.684Z,100.00
2018-11-04T09:18:57.049Z,100.00
2018-11-04T09:21:26.709Z,100.00
2018-11-04T09:23:56.425Z,100.00
2018-11-04T09:26:25.962Z,100.00
2018-11-04T09:28:55.644Z,100.00
2018-11-04T09:31:25.089Z,100.00
2018-11-04T09:33:54.530Z,100.00
2018-11-04T09:36:23.731Z,100.00
2018-11-04T09:38:52.699Z,100.00
2018-11-04T09:41:21.865Z,100.00
2018-11-04T09:43:50.924Z,100.00
2018-11-04T09:46:19.943Z,100.00
2018-11-04T09:48:49.067Z,100.00
2018-11-04T09:51:18.107Z,100.00
2018-11-04T09:53:47.959Z,100.00
2018-11-04T09:56:17.165Z,100.00
2018-11-04T09:58:46.253Z,100.00
2018-11-04T10:01:15.367Z,100.00
2018-11-04T10:03:44.479Z,100.00
2018-11-04T10:06:13.589Z,100.00
2018-11-04T10:08:42.676Z,100.00
2018-11-04T10:11:11.855Z,100.00
2018-11-04T10:13:41.641Z,100.00
2018-11-04T10:16:10.967Z,100.00
2018-11-04T10:18:40.061Z,100.00
2018-11-04T10:21:09.559Z,100.00
2018-11-04T10:23:38.433Z,100.00
2018-11-04T10:26:07.527Z,100.00
2018-11-04T10:28:36.569Z,100.00
2018-11-04T10:31:05.611Z,100.00
2018-11-04T10:33:34.682Z,100.00
2018-11-04T10:36:05.095Z,100.00
2018-11-04T10:38:34.205Z,100.00
2018-11-04T10:41:03.289Z,100.00
2018-11-04T10:43:32.361Z,100.00
2018-11-04T10:46:01.597Z,100.00
2018-11-04T10:48:30.674Z,100.00
2018-11-04T10:50:59.785Z,100.00
2018-11-04T10:53:28.776Z,100.00
2018-11-04T10:55:58.015Z,100.00
2018-11-04T10:58:27.034Z,100.00
2018-11-04T11:01:01.786Z,99.77
2018-11-04T11:03:31.113Z,100.00
2018-11-04T11:06:00.409Z,100.00
2018-11-04T11:08:29.574Z,99.46
2018-11-04T11:10:58.911Z,98.93
2018-11-04T11:13:28.346Z,98.85
2018-11-04T11:15:57.439Z,99.30
2018-11-04T11:18:27.043Z,99.63
2018-11-04T11:20:56.110Z,99.56
2018-11-04T11:23:25.187Z,99.24
2018-11-04T11:25:54.236Z,99.29
2018-11-04T11:28:23.272Z,99.08
2018-11-04T11:30:52.496Z,98.94
2018-11-04T11:33:21.661Z,98.26
2018-11-04T11:35:50.743Z,97.81
2018-11-04T11:38:19.824Z,96.68
2018-11-04T11:40:48.942Z,96.28
2018-11-04T11:43:18.124Z,95.90
2018-11-04T11:45:47.293Z,94.75
2018-11-04T11:48:16.509Z,95.53
2018-11-04T11:50:46.337Z,94.95
2018-11-04T11:53:15.430Z,94.41
2018-11-04T11:55:44.581Z,93.36
2018-11-04T11:58:13.726Z,93.35
2018-11-04T12:00:42.871Z,93.90
2018-11-04T12:03:12.047Z,93.51
2018-11-04T12:05:41.112Z,93.51
2018-11-04T12:08:10.204Z,93.05
2018-11-04T12:10:39.317Z,92.94
2018-11-04T12:13:08.401Z,93.02
2018-11-04T12:15:37.458Z,93.70
2018-11-04T12:18:06.704Z,93.90
2018-11-04T12:20:35.827Z,92.85
2018-11-04T12:23:05.000Z,92.70
2018-11-04T12:25:34.502Z,89.84
2018-11-04T12:28:03.732Z,89.49
2018-11-04T12:30:32.817Z,88.88
2018-11-04T12:33:01.962Z,88.62
2018-11-04T12:35:31.232Z,88.55
2018-11-04T12:38:00.435Z,89.30
2018-11-04T12:40:29.547Z,89.13
2018-11-04T12:42:58.676Z,88.76
2018-11-04T12:45:27.800Z,89.76
2018-11-04T12:48:01.107Z,89.79
2018-11-04T12:50:31.304Z,90.45
2018-11-04T12:53:00.398Z,90.62
2018-11-04T12:55:29.586Z,90.78
2018-11-04T12:57:58.750Z,90.22
2018-11-04T13:00:27.957Z,90.70
2018-11-04T13:02:57.243Z,90.91
2018-11-04T13:05:26.386Z,90.88
2018-11-04T13:07:55.657Z,90.80
2018-11-04T13:10:24.717Z,90.65
2018-11-04T13:12:53.761Z,89.77
2018-11-04T13:15:22.924Z,89.85
2018-11-04T13:17:51.967Z,89.79
2018-11-04T13:23:10.973Z,90.06
2018-11-04T13:25:41.357Z,90.26
2018-11-04T13:28:10.540Z,90.74
2018-11-04T13:30:40.051Z,91.03
2018-11-04T13:33:09.433Z,91.94
2018-11-04T13:35:39.181Z,91.39
2018-11-04T13:38:08.733Z,91.44
2018-11-04T13:40:37.980Z,92.44
2018-11-04T13:43:07.115Z,92.63
2018-11-04T13:45:36.264Z,91.84
2018-11-04T13:48:05.775Z,91.94
2018-11-04T13:50:35.762Z,92.73
2018-11-04T13:53:04.951Z,91.48
2018-11-04T13:55:34.011Z,91.38
2018-11-04T13:58:03.140Z,91.92
2018-11-04T14:00:32.308Z,91.64
2018-11-04T14:03:01.404Z,91.16
2018-11-04T14:05:31.429Z,90.97
2018-11-04T14:08:00.481Z,90.76
2018-11-04T14:10:29.650Z,91.42
2018-11-04T14:12:58.951Z,90.07
2018-11-04T14:15:28.315Z,90.78
2018-11-04T14:17:59.980Z,91.07
2018-11-04T14:20:29.102Z,90.68
2018-11-04T14:22:58.299Z,92.00
2018-11-04T14:25:27.453Z,91.45
2018-11-04T14:27:56.582Z,93.14
2018-11-04T14:30:25.639Z,92.94
2018-11-04T14:32:54.778Z,91.60
2018-11-04T14:35:25.007Z,93.03
2018-11-04T14:37:55.207Z,93.13
2018-11-04T14:40:24.387Z,92.67
2018-11-04T14:42:53.530Z,92.32
2018-11-04T14:45:22.761Z,91.42
2018-11-04T14:47:52.626Z,91.40
2018-11-04T14:50:21.685Z,91.25
2018-11-04T14:52:50.724Z,91.04
2018-11-04T14:55:19.733Z,90.75
2018-11-04T14:57:48.782Z,91.29
2018-11-04T15:00:18.784Z,90.58
2018-11-04T15:02:47.867Z,91.52
2018-11-04T15:05:16.990Z,91.02
2018-11-04T15:07:46.065Z,91.03
2018-11-04T15:10:15.722Z,91.38
2018-11-04T15:12:44.944Z,91.41
2018-11-04T15:15:16.259Z,91.35
2018-11-04T15:17:45.325Z,91.41
2018-11-04T15:20:14.484Z,90.99
2018-11-04T15:22:47.458Z,91.03
2018-11-04T15:25:17.747Z,92.07
2018-11-04T15:27:48.278Z,92.33
2018-11-04T15:30:17.654Z,92.05
2018-11-04T15:32:46.843Z,92.19
2018-11-04T15:35:16.693Z,91.66
2018-11-04T15:37:45.926Z,91.89
2018-11-04T15:40:15.892Z,92.12
2018-11-04T15:42:45.001Z,91.45
2018-11-04T15:45:14.983Z,92.58
2018-11-04T15:47:44.204Z,92.67
2018-11-04T15:50:14.777Z,92.68
2018-11-04T15:52:43.807Z,93.67
2018-11-04T15:55:12.861Z,93.24
2018-11-04T15:57:42.038Z,93.79
2018-11-04T16:00:12.955Z,94.26
2018-11-04T16:02:42.100Z,95.32
2018-11-04T16:05:11.425Z,94.68
2018-11-04T16:07:40.506Z,96.13
2018-11-04T16:10:11.035Z,98.08
2018-11-04T16:12:40.190Z,96.94
2018-11-04T16:15:12.064Z,98.37
2018-11-04T16:17:41.577Z,97.04
2018-11-04T16:20:11.959Z,98.81
2018-11-04T16:22:41.716Z,97.47
2018-11-04T16:25:11.413Z,98.45
2018-11-04T16:27:41.698Z,98.96
2018-11-04T16:30:12.482Z,98.76
2018-11-04T16:32:41.654Z,97.22
2018-11-04T16:35:11.922Z,97.88
2018-11-04T16:37:41.934Z,96.87
2018-11-04T16:40:11.327Z,97.57
2018-11-04T16:42:40.530Z,97.38
2018-11-04T16:45:12.891Z,97.08
2018-11-04T16:47:42.071Z,96.65
2018-11-04T16:50:13.434Z,97.38
2018-11-04T16:52:43.734Z,98.39
2018-11-04T16:55:13.286Z,97.33
2018-11-04T16:57:42.720Z,97.10
2018-11-04T17:00:12.157Z,97.25
2018-11-04T17:02:41.261Z,97.37
2018-11-04T17:05:11.514Z,97.70
2018-11-04T17:07:40.873Z,97.03
2018-11-04T17:10:10.282Z,97.14
2018-11-04T17:12:39.292Z,97.55
2018-11-04T17:15:11.610Z,97.47
2018-11-04T17:17:40.716Z,97.61
2018-11-04T17:20:14.671Z,97.33
2018-11-04T17:22:44.185Z,97.46
2018-11-04T17:25:13.262Z,98.16
2018-11-04T17:27:42.591Z,98.17
2018-11-04T17:30:14.372Z,97.97
2018-11-04T17:32:43.836Z,97.96
2018-11-04T17:35:13.879Z,97.73
2018-11-04T17:37:43.928Z,98.19
2018-11-04T17:40:13.920Z,97.88
2018-11-04T17:42:43.059Z,98.11
2018-11-04T17:45:13.427Z,98.17
2018-11-04T17:47:42.541Z,97.79
2018-11-04T17:50:14.083Z,97.99
2018-11-04T17:52:43.563Z,98.18
2018-11-04T17:55:12.591Z,97.94
2018-11-04T17:57:41.679Z,97.68
2018-11-04T18:00:11.828Z,97.83
2018-11-04T18:02:41.817Z,98.00
2018-11-04T18:05:11.461Z,98.00
2018-11-04T18:07:41.249Z,97.48
2018-11-04T18:10:11.230Z,97.75
2018-11-04T18:12:40.406Z,98.21
2018-11-04T18:15:10.372Z,98.22
2018-11-04T18:17:40.287Z,97.98
2018-11-04T18:20:10.683Z,97.77
2018-11-04T18:22:39.842Z,98.09
2018-11-04T18:25:10.390Z,97.72
2018-11-04T18:27:39.526Z,98.21
2018-11-04T18:30:12.512Z,98.20
2018-11-04T18:32:42.314Z,100.00
2018-11-04T18:35:11.648Z,100.00
2018-11-04T18:37:40.922Z,100.00
2018-11-04T18:40:14.161Z,100.00
2018-11-04T18:42:43.858Z,100.00
2018-11-04T18:45:14.176Z,100.00
2018-11-04T18:47:43.793Z,98.23
2018-11-04T18:50:13.769Z,99.19
2018-11-04T18:52:43.093Z,99.55
2018-11-04T18:55:12.499Z,98.03
2018-11-04T18:57:42.466Z,98.16
2018-11-04T19:00:14.505Z,97.36
2018-11-04T19:02:43.981Z,97.70
2018-11-04T19:05:13.193Z,97.53
2018-11-04T19:07:42.433Z,96.76
2018-11-04T19:10:13.301Z,96.80
2018-11-04T19:12:42.738Z,96.65
2018-11-04T19:15:11.965Z,98.21
2018-11-04T19:17:41.320Z,98.02
2018-11-04T19:20:12.484Z,97.80
2018-11-04T19:22:41.746Z,98.14
2018-11-04T19:25:12.008Z,97.00
2018-11-04T19:27:41.106Z,96.49
2018-11-04T19:30:13.084Z,97.55
2018-11-04T19:32:42.463Z,97.18
2018-11-04T19:35:12.301Z,96.63
2018-11-04T19:37:41.807Z,97.82
2018-11-04T19:40:12.771Z,96.81
2018-11-04T19:42:41.909Z,96.32
2018-11-04T19:45:10.954Z,96.95
2018-11-04T19:47:40.111Z,96.89
2018-11-04T19:50:11.305Z,97.90
2018-11-04T19:52:40.667Z,97.00
2018-11-04T19:55:10.527Z,97.50
2018-11-04T19:57:39.744Z,97.34
2018-11-04T20:00:11.292Z,97.49
2018-11-04T20:02:40.421Z,97.72
2018-11-04T20:05:10.844Z,97.66
2018-11-04T20:07:39.957Z,96.99
2018-11-04T20:10:13.934Z,97.28
2018-11-04T20:12:48.624Z,97.62
2018-11-04T20:15:17.740Z,97.59
2018-11-04T20:17:47.666Z,97.58
2018-11-04T20:20:19.522Z,97.24
2018-11-04T20:22:48.509Z,98.06
2018-11-04T20:25:23.147Z,97.65
2018-11-04T20:27:52.216Z,97.73
2018-11-04T20:30:21.317Z,97.73
2018-11-04T20:32:55.734Z,97.50
2018-11-04T20:35:24.849Z,97.91
2018-11-04T20:37:53.935Z,97.93
2018-11-04T20:40:29.219Z,98.26
2018-11-04T20:42:58.254Z,98.42
2018-11-04T20:45:27.353Z,98.98
2018-11-04T20:49:00.177Z,98.06
2018-11-04T20:51:29.262Z,98.20
2018-11-04T20:53:58.391Z,98.01
2018-11-04T20:56:32.993Z,98.35
2018-11-04T20:59:02.084Z,98.29
2018-11-04T21:01:31.210Z,98.39
2018-11-04T21:04:00.358Z,98.62
2018-11-04T21:06:29.324Z,98.84
2018-11-04T21:08:59.267Z,99.50
2018-11-04T21:11:28.415Z,99.81
2018-11-04T21:13:57.614Z,100.00
2018-11-04T21:16:26.767Z,99.87
2018-11-04T21:18:55.734Z,99.57
2018-11-04T21:21:24.825Z,99.07
2018-11-04T21:23:53.904Z,99.42
2018-11-04T21:26:22.957Z,99.31
2018-11-04T21:28:52.166Z,99.93
2018-11-04T21:31:21.278Z,100.00
2018-11-04T21:33:50.317Z,100.00
2018-11-04T21:36:23.383Z,99.61
2018-11-04T21:38:52.432Z,100.00
2018-11-04T21:41:21.514Z,100.00
2018-11-04T21:43:50.923Z,99.79
2018-11-04T21:46:19.633Z,99.74
2018-11-04T21:48:48.661Z,100.00
2018-11-04T21:51:17.896Z,100.00
2018-11-04T21:53:46.801Z,100.00
2018-11-04T21:56:15.970Z,100.00
2018-11-04T21:58:44.929Z,100.00
2018-11-04T22:01:13.948Z,100.00
2018-11-04T22:03:43.180Z,100.00
2018-11-04T22:06:12.152Z,100.00
2018-11-04T22:08:41.311Z,100.00
2018-11-04T22:11:10.464Z,100.00
2018-11-04T22:13:39.655Z,100.00
2018-11-04T22:16:08.930Z,100.00
2018-11-04T22:18:37.975Z,100.00
2018-11-04T22:21:07.049Z,100.00
2018-11-04T22:23:36.669Z,100.00
2018-11-04T22:26:05.834Z,100.00
2018-11-04T22:28:34.879Z,100.00
2018-11-04T22:31:03.900Z,100.00
2018-11-04T22:33:32.910Z,100.00
2018-11-04T22:36:01.979Z,99.97
2018-11-04T22:38:30.999Z,100.00
2018-11-04T22:41:00.039Z,100.00
2018-11-04T22:43:29.051Z,100.00
2018-11-04T22:45:58.049Z,100.00
2018-11-04T22:48:27.093Z,100.00
2018-11-04T22:50:56.104Z,100.00
2018-11-04T22:53:25.203Z,100.00
2018-11-04T22:55:54.414Z,100.00
2018-11-04T22:58:23.431Z,100.00
2018-11-04T23:00:58.305Z,100.00
2018-11-04T23:03:27.408Z,100.00
2018-11-04T23:05:56.825Z,100.00
2018-11-04T23:08:25.884Z,100.00
2018-11-04T23:10:54.981Z,100.00
2018-11-04T23:13:24.029Z,100.00
2018-11-04T23:15:53.093Z,100.00
2018-11-04T23:18:22.224Z,100.00
2018-11-04T23:20:51.287Z,100.00
2018-11-04T23:23:20.393Z,100.00
2018-11-04T23:25:49.399Z,100.00
2018-11-04T23:28:18.431Z,100.00
2018-11-04T23:30:47.426Z,100.00
2018-11-04T23:33:16.518Z,100.00
2018-11-04T23:35:45.573Z,100.00
2018-11-04T23:38:14.661Z,100.00
2018-11-04T23:40:43.684Z,100.00
2018-11-04T23:43:12.777Z,100.00
2018-11-04T23:45:41.839Z,100.00
2018-11-04T23:48:10.914Z,100.00
2018-11-04T23:50:39.968Z,100.00
2018-11-04T23:53:09.493Z,100.00
2018-11-04T23:55:38.577Z,100.00
2018-11-04T23:58:09.605Z,100.00
